Ana Sayfa
METAR-TAF:

METAR-TAF

Havaalanları :

Stanton County, Kansas, Amerika Birleşik Devletleri

Enlem: 37-35-07N, Boylam: 101-43-56W, yükseklik: 1013 m

Güncel hava durumu gözlemi

Rapor saat 04:55 UTC de 29 dakika önce yapıldı.
Rüzgar doğudan 7 kt
Sıcaklık 14°C
Nem 36%
Basınç 1007 hPa
Görüş mesafesi: 16.1 km
Açık gökyüzü

METAR: KJHN 180455Z AUTO 10007KT 10SM CLR 14/M01 A2974 RMK AO2 T01391008 PNO

Saat: 00:24 (05:24 UTC)


TAF: eksik

4.000'den fazla havaalanı için hava durumu gözlemleri ve tahminleri (METAR ve TAF raporları).

Kullanılabilir istasyonlar harita üzerinde sarı ve kırmızı noktalarla gösterilir.

İstasyonun adını görmek için fareyi noktanın üzerinde gezdirin.

Sonrasında hava gözlem ve tahminlerini görmek için tıklayın.

Haritayı değiştirmek için: yaklaştırmak için siyah artı işaretli yeşil düğmeye ve uzaklaştırmak için de eksi işaretli düğmeye hızla tıklayın; bitişik haritalar için yeşil okları kullanın.


METAR-TAF: